Asaba International Airport

DNAS · Delta, Nigeria

Storia di METAR DNAS · Asaba International Airport

Di seguito sono riportati i METAR degli ultimi giorni. Seleziona un anno per sfogliare i METAR più vecchi, dall'anno 2007 in poi.

26 novembre 2022

Tempo Codice Tempo metereologico Temp. Vista Base nuvolosa Vento METAR/SPECI
15:00
V
35 °C 10 km+ - 090° 090° 3 kt SPECI DNEN 261400Z 09003KT 9999 CAVOK 35/18 Q1008 NOSIG
15:00
V
35 °C 10 km+ - 090° 090° 3 kt METAR DNEN 261400Z 09003KT CAVOK 35/18 Q1008 NOSIG
14:00
V
35 °C 10 km+ - 200° 200° 3 kt METAR DNEN 261300Z 20003KT CAVOK 35/18 Q1009 NOSIG
11:00
V
32 °C 10 km+ - 110° 110° 5 kt METAR DNEN 261000Z 11005KT 9999 FEW013 32/21 Q1012 NOSIG
08:00
M
24 °C 5 km - Var 000° 3 kt METAR DNEN 260700Z 70003KT 5000 NSC 24/18 Q1012 NOSIG

25 novembre 2022

Tempo Codice Tempo metereologico Temp. Vista Base nuvolosa Vento METAR/SPECI
20:00
V
27 °C 8 km - 270° 270° 5 kt METAR DNEN 251900Z 27005KT 8000 NSC 27/19 Q1010 NOSIG
18:00
V
32 °C 10 km+ - Var 000° 0 kt METAR DNEN 251700Z 00000KT CAVOK 32/14 Q1008 NOSIG
16:00
V
35 °C 10 km+ - 040° 040° 4 kt METAR DNEN 251500Z 04004KT CAVOK 35/12 Q1008 NOSIG
15:00
V
35 °C 10 km+ - 010° 010° 8 kt METAR DNEN 251400Z 01008KT CAVOK 35/11 Q1008 NOSIG
12:00
V
33 °C 10 km+ - 040° 040° 8 kt METAR DNEN 251100Z 04008KT CAVOK 33/12 Q1011 NOSIG
11:00
V
32 °C 8 km - 060° 060° 6 kt METAR DNEN 251000Z 06006KT 8000 NSC 32/13 Q1012 NOSIG
09:00
M
27 °C 6 km - 280° 280° 3 kt METAR DNEN 250800Z 28003KT 6000 NSC 27/22 Q1012 NOSIG
08:00
M
22 °C 6 km - Var 000° 0 kt METAR DNEN 250700Z 00000KT 6000 22/18 Q1012 NOSIG

24 novembre 2022

Tempo Codice Tempo metereologico Temp. Vista Base nuvolosa Vento METAR/SPECI
20:00
V
27 °C 8 km - Var 000° 0 kt METAR DNEN 241900Z 00000KT 8000 FEW012 27/18 Q1009 NOSIG
18:00
V
32 °C 10 km+ - Var 000° 0 kt METAR DNEN 241700Z 00000KT 9999 FEW014 32/22 Q1008 NOSIG
17:00
V
34 °C 10 km+ - 350° 350° 3 kt METAR DNEN 241600Z 35003KT 9999 FEW015 34/23 Q1007 NOSIG
16:00
V
34 °C 10 km+ - 040° 040° 7 kt METAR DNEN 241500Z 04007KT 9999 NSC 34/23 Q1007 NOSIG
15:00
V
34 °C 10 km+ - 050° 050° 7 kt METAR DNEN 241400Z 05007KT CAVOK 34/13 Q1008 NOSIG
14:00
V
34 °C 10 km+ - 040° 040° 10 kt METAR DNEN 241300Z 04010KT CAVOK 34/13 Q1009 NOSIG
12:00
V
31 °C 10 km+ - 010° 010° 6 kt METAR DNEN 241100Z 01006KT CAVOK 31/22 Q1011 NOSIG
11:00
V
30 °C 10 km+ - 150° 150° 5 kt METAR DNEN 241000Z 15005KT 9999 FEW012 30/22 Q1012 NOSIG

Noi e le terze parti seguiamo il tuo comportamento su internet con i cookie. Se continui, riteniamo che tu sia d'accordo con la nostra Politica sui cookie.